Time;durP1;ratioP1;P1;durP2;ratioP2;P2;SDS_P1;SDS_P2;PMS_P1;PMS_P2;Temp;Humidity;BMP_temperature;BMP_pressure;BME280_temperature;BME280_humidity;BME280_pressure;Samples;Min_cycle;Max_cycle;Signal;HPM_P1;HPM_P2
2023/08/02 00:00:52;;;;;;;8.57;3.67;;;;;;;;;;5057379;28;20510;-79
2023/08/02 00:03:18;;;;;;;8.63;3.10;;;;;;;;;;5056852;28;20099;-79
2023/08/02 00:05:51;;;;;;;7.25;3.03;;;;;;;;;;5055168;28;20052;-79
2023/08/02 00:08:17;;;;;;;6.88;3.13;;;;;;;;;;5056654;28;20575;-79
2023/08/02 00:10:44;;;;;;;10.20;3.40;;;;;;;;;;5045369;28;20404;-79
2023/08/02 00:13:10;;;;;;;14.18;3.35;;;;;;;;;;5036556;28;20084;-79
2023/08/02 00:15:39;;;;;;;8.20;3.33;;;;;;;;;;5036380;28;20045;-79
2023/08/02 00:18:05;;;;;;;7.38;3.05;;;;;;;;;;5054931;28;20488;-79
2023/08/02 00:20:31;;;;;;;7.13;3.53;;;;;;;;;;5056632;28;20096;-79
2023/08/02 00:22:57;;;;;;;6.65;3.30;;;;;;;;;;5054625;28;20041;-79
2023/08/02 00:25:23;;;;;;;7.22;3.17;;;;;;;;;;5052403;28;20128;-79
2023/08/02 00:27:49;;;;;;;10.02;3.35;;;;;;;;;;5045011;28;20450;-79
2023/08/02 00:30:16;;;;;;;6.03;3.35;;;;;;;;;;5048525;28;20055;-79
2023/08/02 00:32:48;;;;;;;8.00;3.65;;;;;;;;;;5036278;28;20041;-79
2023/08/02 00:35:15;;;;;;;6.10;2.75;;;;;;;;;;5053065;28;20480;-79
2023/08/02 00:37:42;;;;;;;7.55;3.28;;;;;;;;;;5040763;28;20077;-79
2023/08/02 00:40:08;;;;;;;8.38;3.38;;;;;;;;;;5037156;28;20061;-79
2023/08/02 00:42:37;;;;;;;6.55;3.35;;;;;;;;;;5052128;28;20041;-79
2023/08/02 00:45:04;;;;;;;6.25;2.83;;;;;;;;;;5048152;28;20383;-79
2023/08/02 00:47:33;;;;;;;6.32;3.20;;;;;;;;;;5038733;28;20052;-78
2023/08/02 00:50:00;;;;;;;6.45;2.92;;;;;;;;;;5036036;28;20053;-79
2023/08/02 00:52:26;;;;;;;8.38;3.28;;;;;;;;;;5037461;28;20047;-79
2023/08/02 00:54:53;;;;;;;5.95;3.30;;;;;;;;;;5041118;28;20041;-79
2023/08/02 00:57:19;;;;;;;6.57;3.33;;;;;;;;;;5041413;28;20118;-79
2023/08/02 00:59:45;;;;;;;7.22;2.97;;;;;;;;;;5052640;28;20115;-79
2023/08/02 01:02:11;;;;;;;5.70;3.20;;;;;;;;;;5036240;28;20045;-79
2023/08/02 01:04:38;;;;;;;9.20;3.67;;;;;;;;;;5035054;28;20049;-79
2023/08/02 01:07:24;;;;;;;6.03;3.08;;;;;;;;;;5049279;28;20045;-79
2023/08/02 01:09:50;;;;;;;;;;;;;;;;;;5052516;28;20107;-79
2023/08/02 01:12:18;;;;;;;7.85;3.47;;;;;;;;;;5035421;28;19924;-79
2023/08/02 01:14:45;;;;;;;4.80;3.63;;;;;;;;;;5035217;28;20420;-79
2023/08/02 01:17:13;;;;;;;4.57;3.58;;;;;;;;;;5034802;28;20518;-79
2023/08/02 01:19:39;;;;;;;7.32;4.05;;;;;;;;;;5034974;28;20166;-79
2023/08/02 01:22:05;;;;;;;9.13;4.50;;;;;;;;;;5048602;28;20071;-79
2023/08/02 01:24:35;;;;;;;9.70;4.60;;;;;;;;;;5052611;28;20049;-79
2023/08/02 01:27:12;;;;;;;11.73;5.50;;;;;;;;;;5035171;28;20045;-79
2023/08/02 01:29:42;;;;;;;9.60;5.43;;;;;;;;;;5037714;28;20056;-79
2023/08/02 01:32:10;;;;;;;10.77;5.40;;;;;;;;;;5040858;28;20095;-79
2023/08/02 01:34:36;;;;;;;9.85;4.95;;;;;;;;;;5034518;28;20072;-79
2023/08/02 01:37:02;;;;;;;8.05;5.57;;;;;;;;;;5034743;28;20043;-79
2023/08/02 01:39:28;;;;;;;8.10;5.43;;;;;;;;;;5048815;28;20053;-79
2023/08/02 01:41:54;;;;;;;8.20;5.20;;;;;;;;;;5050427;28;20069;-79
2023/08/02 01:44:20;;;;;;;10.88;5.53;;;;;;;;;;5035382;28;20069;-79
2023/08/02 01:46:46;;;;;;;13.90;6.53;;;;;;;;;;5034410;28;20041;-79
2023/08/02 01:49:12;;;;;;;8.52;5.75;;;;;;;;;;5051149;28;20052;-79
2023/08/02 01:51:38;;;;;;;9.20;5.35;;;;;;;;;;5054290;28;20056;-79
2023/08/02 01:54:04;;;;;;;9.60;5.88;;;;;;;;;;5031867;28;20048;-79
2023/08/02 01:56:30;;;;;;;8.13;5.55;;;;;;;;;;5039118;28;20045;-79
2023/08/02 01:58:56;;;;;;;9.48;5.85;;;;;;;;;;5041450;28;20048;-79
2023/08/02 02:01:23;;;;;;;11.60;6.28;;;;;;;;;;5034228;28;20128;-79
2023/08/02 02:03:49;;;;;;;10.90;6.30;;;;;;;;;;5034241;28;20046;-79
2023/08/02 02:06:15;;;;;;;9.35;6.20;;;;;;;;;;5034072;28;20116;-79
2023/08/02 02:08:41;;;;;;;12.80;6.20;;;;;;;;;;5034136;28;20075;-79
2023/08/02 02:11:07;;;;;;;9.68;6.03;;;;;;;;;;5043554;28;20473;-79
2023/08/02 02:13:33;;;;;;;9.30;6.00;;;;;;;;;;5037181;28;20059;-79
2023/08/02 02:15:59;;;;;;;10.98;6.35;;;;;;;;;;5039555;28;20075;-79
2023/08/02 02:18:25;;;;;;;11.05;6.63;;;;;;;;;;5053811;28;20053;-78
2023/08/02 02:20:51;;;;;;;10.63;5.57;;;;;;;;;;5042390;28;20483;-79
2023/08/02 02:23:17;;;;;;;10.40;6.20;;;;;;;;;;5033899;28;20045;-79
2023/08/02 02:25:43;;;;;;;10.65;6.38;;;;;;;;;;5033738;28;20041;-79
2023/08/02 02:28:11;;;;;;;11.32;7.05;;;;;;;;;;5046828;28;20049;-79
2023/08/02 02:30:37;;;;;;;12.50;7.43;;;;;;;;;;5053688;28;20049;-79
2023/08/02 02:33:04;;;;;;;13.98;7.18;;;;;;;;;;5040733;28;20388;-79
2023/08/02 02:35:30;;;;;;;14.35;6.88;;;;;;;;;;5043434;28;20049;-79
2023/08/02 02:37:56;;;;;;;10.75;6.30;;;;;;;;;;5053095;28;20190;-79
2023/08/02 02:40:22;;;;;;;11.48;6.40;;;;;;;;;;5039594;28;20053;-79
2023/08/02 02:42:48;;;;;;;9.63;6.10;;;;;;;;;;5033616;28;20045;-79
2023/08/02 02:45:14;;;;;;;11.60;6.07;;;;;;;;;;5033533;28;20048;-78
2023/08/02 02:47:40;;;;;;;12.35;5.95;;;;;;;;;;5034450;28;20518;-78
2023/08/02 02:50:07;;;;;;;8.40;6.03;;;;;;;;;;5035745;28;20060;-79
2023/08/02 02:52:33;;;;;;;10.65;5.85;;;;;;;;;;5044255;28;20129;-78
2023/08/02 02:54:59;;;;;;;9.68;6.40;;;;;;;;;;5054626;28;20460;-78
2023/08/02 02:57:25;;;;;;;19.38;6.50;;;;;;;;;;5040348;28;20460;-78
2023/08/02 02:59:51;;;;;;;10.75;6.10;;;;;;;;;;5051367;28;20369;-78
2023/08/02 03:02:17;;;;;;;11.85;6.75;;;;;;;;;;5059612;28;20533;-78
2023/08/02 03:04:43;;;;;;;8.85;6.40;;;;;;;;;;5039769;28;20045;-79
2023/08/02 03:07:09;;;;;;;9.80;6.78;;;;;;;;;;5038274;28;20052;-79
2023/08/02 03:09:35;;;;;;;10.63;7.28;;;;;;;;;;5039809;28;20128;-78
2023/08/02 03:12:01;;;;;;;14.80;6.50;;;;;;;;;;5039758;28;20077;-79
2023/08/02 03:14:28;;;;;;;10.63;6.70;;;;;;;;;;5039702;28;20052;-79
2023/08/02 03:16:54;;;;;;;9.32;6.53;;;;;;;;;;5039388;28;20427;-79
2023/08/02 03:19:20;;;;;;;11.00;6.68;;;;;;;;;;5039520;28;20647;-79
2023/08/02 03:21:46;;;;;;;12.88;7.68;;;;;;;;;;5054609;28;20037;-79
2023/08/02 03:24:12;;;;;;;12.05;6.63;;;;;;;;;;5059349;28;20049;-79
2023/08/02 03:26:38;;;;;;;9.38;6.35;;;;;;;;;;5039592;28;20049;-79
2023/08/02 03:29:04;;;;;;;9.52;6.53;;;;;;;;;;5040199;28;20053;-79
2023/08/02 03:31:30;;;;;;;9.13;5.70;;;;;;;;;;5059585;28;20055;-79
2023/08/02 03:33:56;;;;;;;11.90;6.30;;;;;;;;;;5055814;28;20049;-79
2023/08/02 03:36:22;;;;;;;14.45;6.80;;;;;;;;;;5046313;28;20071;-79
2023/08/02 03:38:48;;;;;;;11.05;6.25;;;;;;;;;;5059180;28;20053;-79
2023/08/02 03:41:14;;;;;;;10.57;6.28;;;;;;;;;;5059592;28;20037;-79
2023/08/02 03:43:40;;;;;;;11.85;6.55;;;;;;;;;;5059048;28;20051;-79
2023/08/02 03:46:07;;;;;;;12.48;6.45;;;;;;;;;;5049982;28;20140;-79
2023/08/02 03:48:33;;;;;;;9.73;7.13;;;;;;;;;;5052200;28;20461;-79
2023/08/02 03:50:59;;;;;;;12.32;6.45;;;;;;;;;;5059074;28;20414;-79
2023/08/02 03:53:26;;;;;;;11.65;6.25;;;;;;;;;;5041753;28;20408;-79
2023/08/02 03:55:52;;;;;;;15.80;7.05;;;;;;;;;;5059490;28;20051;-78
2023/08/02 03:58:19;;;;;;;15.57;7.25;;;;;;;;;;5055909;28;20037;-79
2023/08/02 04:00:45;;;;;;;9.80;6.13;;;;;;;;;;5045828;28;20041;-79
2023/08/02 04:03:11;;;;;;;9.98;6.28;;;;;;;;;;5047218;28;20069;-79
2023/08/02 04:05:37;;;;;;;10.52;5.93;;;;;;;;;;5036311;28;20480;-79
2023/08/02 04:08:04;;;;;;;11.63;6.75;;;;;;;;;;5036357;28;20065;-79
2023/08/02 04:10:30;;;;;;;10.00;6.57;;;;;;;;;;5048885;28;20415;-79
2023/08/02 04:12:56;;;;;;;10.40;6.35;;;;;;;;;;5041932;28;20492;-79
2023/08/02 04:15:22;;;;;;;14.88;6.85;;;;;;;;;;5053741;28;20053;-79
2023/08/02 04:17:49;;;;;;;15.55;6.88;;;;;;;;;;5055754;28;20049;-79
2023/08/02 04:20:15;;;;;;;14.98;6.70;;;;;;;;;;5037818;28;20095;-78
2023/08/02 04:22:41;;;;;;;9.55;7.20;;;;;;;;;;5047185;28;20061;-79
2023/08/02 04:25:07;;;;;;;15.02;7.80;;;;;;;;;;5039684;28;20086;-79
2023/08/02 04:27:33;;;;;;;11.38;6.50;;;;;;;;;;5053302;28;20041;-79
2023/08/02 04:29:59;;;;;;;14.55;7.18;;;;;;;;;;5055977;28;20053;-79
2023/08/02 04:32:26;;;;;;;18.42;7.75;;;;;;;;;;5056030;28;20040;-79
2023/08/02 04:34:52;;;;;;;14.40;7.15;;;;;;;;;;5054748;28;20041;-78
2023/08/02 04:37:18;;;;;;;14.45;7.03;;;;;;;;;;5048982;28;20045;-78
2023/08/02 04:39:44;;;;;;;19.58;7.22;;;;;;;;;;5039697;28;20049;-78
2023/08/02 04:42:10;;;;;;;15.23;7.00;;;;;;;;;;5044333;28;20049;-78
2023/08/02 04:44:36;;;;;;;20.52;7.68;;;;;;;;;;5050518;28;20038;-78
2023/08/02 04:47:03;;;;;;;20.00;7.30;;;;;;;;;;5034840;28;20403;-78
2023/08/02 04:49:29;;;;;;;17.45;7.90;;;;;;;;;;5052528;28;20499;-79
2023/08/02 04:51:55;;;;;;;15.00;7.35;;;;;;;;;;5047190;28;20448;-79
2023/08/02 04:54:21;;;;;;;19.60;7.90;;;;;;;;;;5055165;28;20041;-78
2023/08/02 04:56:48;;;;;;;14.50;6.75;;;;;;;;;;5055715;28;20483;-78
2023/08/02 04:59:14;;;;;;;16.92;6.88;;;;;;;;;;5055492;28;20044;-78
2023/08/02 05:01:40;;;;;;;17.42;7.75;;;;;;;;;;5043903;28;20091;-79
2023/08/02 05:04:08;;;;;;;18.08;7.00;;;;;;;;;;5035558;28;20042;-79
2023/08/02 05:06:34;;;;;;;13.10;7.28;;;;;;;;;;5045632;28;20051;-79
2023/08/02 05:09:04;;;;;;;14.07;7.60;;;;;;;;;;5054307;28;20052;-78
2023/08/02 05:11:33;;;;;;;18.85;7.40;;;;;;;;;;5055063;28;20053;-78
2023/08/02 05:13:59;;;;;;;19.70;7.32;;;;;;;;;;5054994;28;20464;-79
2023/08/02 05:16:26;;;;;;;18.45;7.53;;;;;;;;;;5046296;28;20041;-78
2023/08/02 05:18:52;;;;;;;15.90;7.88;;;;;;;;;;5034595;28;20068;-78
2023/08/02 05:21:19;;;;;;;19.98;8.43;;;;;;;;;;5034606;28;20045;-79
2023/08/02 05:23:45;;;;;;;17.92;8.32;;;;;;;;;;5045528;28;20384;-79
2023/08/02 05:26:13;;;;;;;14.30;7.78;;;;;;;;;;5036786;28;20107;-79
2023/08/02 05:28:39;;;;;;;13.60;7.90;;;;;;;;;;5034428;28;20051;-79
2023/08/02 05:31:12;;;;;;;20.02;8.02;;;;;;;;;;5034985;28;20538;-79
2023/08/02 05:33:38;;;;;;;18.90;8.40;;;;;;;;;;5055621;28;20106;-79
2023/08/02 05:36:05;;;;;;;16.52;8.05;;;;;;;;;;5053282;28;20159;-78
2023/08/02 05:38:31;;;;;;;12.98;7.05;;;;;;;;;;5034117;28;20092;-79
2023/08/02 05:41:01;;;;;;;20.83;8.00;;;;;;;;;;5053701;28;20047;-79
2023/08/02 05:43:27;;;;;;;16.60;7.80;;;;;;;;;;5043600;28;20404;-81
2023/08/02 05:45:53;;;;;;;15.02;8.35;;;;;;;;;;5035076;28;20084;-79
2023/08/02 05:48:19;;;;;;;15.73;8.75;;;;;;;;;;5032900;28;20052;-78
2023/08/02 05:50:45;;;;;;;13.75;7.00;;;;;;;;;;5051878;28;20041;-79
2023/08/02 05:53:11;;;;;;;11.85;7.80;;;;;;;;;;5053745;28;20044;-79
2023/08/02 05:55:37;;;;;;;17.17;8.32;;;;;;;;;;5053675;28;20045;-78
2023/08/02 05:58:03;;;;;;;15.90;8.45;;;;;;;;;;5053820;28;20041;-78
2023/08/02 06:00:30;;;;;;;14.75;8.98;;;;;;;;;;5054542;28;20067;-79
2023/08/02 06:02:56;;;;;;;15.40;8.80;;;;;;;;;;5036623;28;20477;-78
2023/08/02 06:05:22;;;;;;;14.45;8.77;;;;;;;;;;5043343;28;20124;-79
2023/08/02 06:07:48;;;;;;;13.57;7.90;;;;;;;;;;5033508;28;20564;-78
2023/08/02 06:10:14;;;;;;;16.73;9.02;;;;;;;;;;5043236;28;20049;-79
2023/08/02 06:12:40;;;;;;;15.30;8.40;;;;;;;;;;5033761;28;20053;-78
2023/08/02 06:15:07;;;;;;;15.80;8.18;;;;;;;;;;5044465;28;20120;-78
2023/08/02 06:17:33;;;;;;;17.90;8.50;;;;;;;;;;5033662;28;20562;-78
2023/08/02 06:19:59;;;;;;;15.05;8.50;;;;;;;;;;5033625;28;20133;-78
2023/08/02 06:22:26;;;;;;;14.57;8.30;;;;;;;;;;5033961;28;20095;-78
2023/08/02 06:24:52;;;;;;;15.05;8.35;;;;;;;;;;5033120;28;20144;-78
2023/08/02 06:27:18;;;;;;;14.07;9.23;;;;;;;;;;5033246;28;20091;-78
2023/08/02 06:29:44;;;;;;;14.68;8.73;;;;;;;;;;5052984;28;20044;-79
2023/08/02 06:32:10;;;;;;;15.43;9.10;;;;;;;;;;5035250;28;20045;-79
2023/08/02 06:34:36;;;;;;;15.65;8.95;;;;;;;;;;5040452;28;20041;-79
2023/08/02 06:37:02;;;;;;;14.27;9.25;;;;;;;;;;5053251;28;20061;-79
2023/08/02 06:39:28;;;;;;;15.90;8.90;;;;;;;;;;5035255;28;20484;-79
2023/08/02 06:41:54;;;;;;;15.07;8.93;;;;;;;;;;5033183;28;20054;-79
2023/08/02 06:44:20;;;;;;;15.02;8.90;;;;;;;;;;5033218;28;20045;-78
2023/08/02 06:46:46;;;;;;;17.27;10.00;;;;;;;;;;5034507;28;20068;-80
2023/08/02 06:49:13;;;;;;;15.63;9.02;;;;;;;;;;5036687;28;20050;-78
2023/08/02 06:51:39;;;;;;;14.85;8.80;;;;;;;;;;5034496;28;20042;-81
2023/08/02 06:54:05;;;;;;;15.77;8.80;;;;;;;;;;5035440;28;20064;-84
2023/08/02 06:56:31;;;;;;;17.60;10.18;;;;;;;;;;5017692;28;20041;-82
2023/08/02 06:58:58;;;;;;;17.17;9.77;;;;;;;;;;5039348;28;20196;-81
2023/08/02 07:01:24;;;;;;;18.45;9.77;;;;;;;;;;5035646;28;20124;-81
2023/08/02 07:03:50;;;;;;;14.90;9.48;;;;;;;;;;5033170;28;20053;-81
2023/08/02 07:06:18;;;;;;;13.38;8.82;;;;;;;;;;5035553;28;20044;-80
2023/08/02 07:08:44;;;;;;;15.38;9.68;;;;;;;;;;5037416;28;20045;-80
2023/08/02 07:11:11;;;;;;;18.00;10.13;;;;;;;;;;5034907;28;20039;-80
2023/08/02 07:13:37;;;;;;;17.02;9.18;;;;;;;;;;5034738;28;20542;-80
2023/08/02 07:16:04;;;;;;;19.58;9.80;;;;;;;;;;5034971;28;20046;-80
2023/08/02 07:18:30;;;;;;;17.13;9.95;;;;;;;;;;5051828;28;20106;-80
2023/08/02 07:20:57;;;;;;;13.52;9.13;;;;;;;;;;5054408;28;20045;-80
2023/08/02 07:23:23;;;;;;;15.65;8.32;;;;;;;;;;5054506;28;20048;-80
2023/08/02 07:25:49;;;;;;;15.05;9.35;;;;;;;;;;5042182;28;20041;-81
2023/08/02 07:28:15;;;;;;;15.50;8.55;;;;;;;;;;5043146;28;20092;-78
2023/08/02 07:30:41;;;;;;;14.82;8.70;;;;;;;;;;5033687;28;20484;-80
2023/08/02 07:33:07;;;;;;;12.00;8.82;;;;;;;;;;5031456;28;20535;-78
2023/08/02 07:35:37;;;;;;;18.75;9.20;;;;;;;;;;5032406;28;20447;-78
2023/08/02 07:38:03;;;;;;;12.98;8.60;;;;;;;;;;5032808;28;20057;-79
2023/08/02 07:40:29;;;;;;;18.13;9.35;;;;;;;;;;5049460;28;20131;-79
2023/08/02 07:42:55;;;;;;;15.20;8.23;;;;;;;;;;5058699;28;20502;-81
2023/08/02 07:45:21;;;;;;;11.88;7.88;;;;;;;;;;5068549;28;20045;-79
2023/08/02 07:47:47;;;;;;;12.95;7.90;;;;;;;;;;5057974;28;20080;-81
2023/08/02 07:50:13;;;;;;;13.77;8.05;;;;;;;;;;5057401;28;20118;-79
2023/08/02 07:52:39;;;;;;;13.63;7.68;;;;;;;;;;5057693;28;20457;-79
2023/08/02 07:55:06;;;;;;;13.50;7.70;;;;;;;;;;5057570;28;20041;-79
2023/08/02 07:57:32;;;;;;;15.10;8.30;;;;;;;;;;5044870;28;20139;-79
2023/08/02 07:59:59;;;;;;;11.85;7.10;;;;;;;;;;5043286;28;20048;-79
2023/08/02 08:02:25;;;;;;;11.02;7.03;;;;;;;;;;5048056;28;20037;-79
2023/08/02 08:04:54;;;;;;;11.10;6.57;;;;;;;;;;5058675;28;20560;-79
2023/08/02 08:07:21;;;;;;;12.43;6.38;;;;;;;;;;5061687;28;20052;-79
2023/08/02 08:09:47;;;;;;;12.52;7.15;;;;;;;;;;5050204;28;20148;-79
2023/08/02 08:12:13;;;;;;;21.75;6.70;;;;;;;;;;5045021;28;20072;-79
2023/08/02 08:14:39;;;;;;;10.85;6.07;;;;;;;;;;5056076;28;20041;-79
2023/08/02 08:17:05;;;;;;;13.38;5.97;;;;;;;;;;5055806;28;20506;-79
2023/08/02 08:19:35;;;;;;;13.77;6.55;;;;;;;;;;5060754;28;20045;-79
2023/08/02 08:22:01;;;;;;;11.65;6.35;;;;;;;;;;5057466;28;20045;-79
2023/08/02 08:24:27;;;;;;;14.77;7.05;;;;;;;;;;5052564;28;20041;-79
2023/08/02 08:26:55;;;;;;;11.68;5.85;;;;;;;;;;5053742;28;20124;-79
2023/08/02 08:29:21;;;;;;;7.03;5.50;;;;;;;;;;5046971;28;20210;-79
2023/08/02 08:31:47;;;;;;;10.48;5.82;;;;;;;;;;5053231;28;20037;-79
2023/08/02 08:34:13;;;;;;;8.75;5.00;;;;;;;;;;5056098;28;20072;-79
2023/08/02 08:36:40;;;;;;;9.45;5.68;;;;;;;;;;5047547;28;20045;-78
2023/08/02 08:39:06;;;;;;;9.60;5.38;;;;;;;;;;5046964;28;20053;-78
2023/08/02 08:41:34;;;;;;;11.15;5.32;;;;;;;;;;5045520;28;20049;-79
2023/08/02 08:44:03;;;;;;;7.85;4.43;;;;;;;;;;5047789;28;20396;-79
2023/08/02 08:46:33;;;;;;;7.57;4.90;;;;;;;;;;5056175;28;20028;-79
2023/08/02 08:48:59;;;;;;;8.45;5.25;;;;;;;;;;5040850;28;20045;-79
2023/08/02 08:51:27;;;;;;;13.43;5.70;;;;;;;;;;5037910;28;20056;-79
2023/08/02 08:53:54;;;;;;;9.77;5.18;;;;;;;;;;5046192;28;20104;-80
2023/08/02 08:56:24;;;;;;;10.05;5.57;;;;;;;;;;5056155;28;20510;-79
2023/08/02 08:58:52;;;;;;;9.93;5.30;;;;;;;;;;5061295;28;20055;-80
2023/08/02 09:01:18;;;;;;;10.25;5.97;;;;;;;;;;5060955;28;20060;-81
2023/08/02 09:03:45;;;;;;;9.35;5.22;;;;;;;;;;5060690;28;20055;-81
2023/08/02 09:06:13;;;;;;;10.57;5.20;;;;;;;;;;5061750;28;20435;-80
2023/08/02 09:08:43;;;;;;;9.48;5.53;;;;;;;;;;5061595;28;20037;-80
2023/08/02 09:11:09;;;;;;;10.50;5.63;;;;;;;;;;5061688;28;20115;-80
2023/08/02 09:13:35;;;;;;;10.35;5.45;;;;;;;;;;5059957;28;20499;-80
2023/08/02 09:16:04;;;;;;;8.30;5.68;;;;;;;;;;5062287;28;20533;-80
2023/08/02 09:18:37;;;;;;;10.18;5.80;;;;;;;;;;5060527;28;20104;-79
2023/08/02 09:21:03;;;;;;;10.27;5.07;;;;;;;;;;5060871;28;20115;-79
2023/08/02 09:23:30;;;;;;;10.60;5.65;;;;;;;;;;5061033;28;20088;-79
2023/08/02 09:26:11;;;;;;;7.25;4.72;;;;;;;;;;5061636;28;20101;-79
2023/08/02 09:28:37;;;;;;;7.10;4.93;;;;;;;;;;5039974;28;20042;-79
2023/08/02 09:31:13;;;;;;;9.73;5.60;;;;;;;;;;5044766;28;20492;-79
2023/08/02 09:33:49;;;;;;;7.50;5.50;;;;;;;;;;5048187;28;20041;-78
2023/08/02 09:36:22;;;;;;;11.40;5.15;;;;;;;;;;5059651;28;20384;-78
2023/08/02 09:38:56;;;;;;;7.72;5.13;;;;;;;;;;5060249;28;20064;-79
2023/08/02 09:41:22;;;;;;;7.88;5.20;;;;;;;;;;5058571;28;20114;-81
2023/08/02 09:43:49;;;;;;;8.18;5.57;;;;;;;;;;5061122;28;20052;-81
2023/08/02 09:46:30;;;;;;;8.82;5.25;;;;;;;;;;5061117;28;20036;-81
2023/08/02 09:49:00;;;;;;;7.18;5.10;;;;;;;;;;5058634;28;20041;-81
2023/08/02 09:51:39;;;;;;;8.57;5.55;;;;;;;;;;5061057;28;20076;-80
2023/08/02 09:54:06;;;;;;;9.55;6.18;;;;;;;;;;5059092;28;20053;-79
2023/08/02 09:56:34;;;;;;;11.45;6.75;;;;;;;;;;5058901;28;20053;-80
2023/08/02 09:59:00;;;;;;;8.32;6.15;;;;;;;;;;5058465;28;20037;-80
2023/08/02 10:01:26;;;;;;;7.65;5.72;;;;;;;;;;5041679;28;20374;-80
2023/08/02 10:03:57;;;;;;;7.88;6.05;;;;;;;;;;5045341;28;20045;-79
2023/08/02 10:06:29;;;;;;;8.77;5.72;;;;;;;;;;5057673;28;20041;-79
2023/08/02 10:09:02;;;;;;;7.68;6.07;;;;;;;;;;5057060;28;20502;-79
2023/08/02 10:11:29;;;;;;;10.00;5.60;;;;;;;;;;5058597;28;20116;-81
2023/08/02 10:13:55;;;;;;;9.10;6.20;;;;;;;;;;5057828;28;20076;-79
2023/08/02 10:16:24;;;;;;;8.63;6.10;;;;;;;;;;5057841;28;20051;-79
2023/08/02 10:18:52;;;;;;;7.30;6.03;;;;;;;;;;5049626;28;20395;-79
2023/08/02 10:21:19;;;;;;;6.47;5.60;;;;;;;;;;5038709;28;20053;-79
2023/08/02 10:23:45;;;;;;;6.70;5.90;;;;;;;;;;5058029;28;20048;-79
2023/08/02 10:26:12;;;;;;;7.07;5.32;;;;;;;;;;5058800;28;20052;-78
2023/08/02 10:28:41;;;;;;;6.38;4.57;;;;;;;;;;5069465;28;20124;-79
2023/08/02 10:31:08;;;;;;;10.45;6.07;;;;;;;;;;5051911;28;20045;-79
2023/08/02 10:33:34;;;;;;;9.80;5.35;;;;;;;;;;5052973;28;20128;-79
2023/08/02 10:36:07;;;;;;;7.75;6.05;;;;;;;;;;5053901;28;20060;-78
2023/08/02 10:38:39;;;;;;;7.30;5.43;;;;;;;;;;5059828;28;20392;-78
2023/08/02 10:41:13;;;;;;;8.07;5.45;;;;;;;;;;5058835;28;20103;-79
2023/08/02 10:43:52;;;;;;;6.65;5.25;;;;;;;;;;5039837;28;20406;-79
2023/08/02 10:46:26;;;;;;;6.43;4.93;;;;;;;;;;5035875;28;20098;-81
2023/08/02 10:48:53;;;;;;;5.97;4.90;;;;;;;;;;5039124;28;20041;-81
2023/08/02 10:51:32;;;;;;;5.20;4.53;;;;;;;;;;5059507;28;20123;-82
2023/08/02 10:54:14;;;;;;;6.82;4.95;;;;;;;;;;5049785;28;20056;-81
2023/08/02 10:56:55;;;;;;;6.13;4.78;;;;;;;;;;5046807;28;20056;-81
2023/08/02 10:59:25;;;;;;;5.60;4.70;;;;;;;;;;5046015;28;20183;-82
2023/08/02 11:01:55;;;;;;;5.32;4.80;;;;;;;;;;5060103;28;20040;-81
2023/08/02 11:04:21;;;;;;;5.18;4.00;;;;;;;;;;5058669;28;20048;-80
2023/08/02 11:06:48;;;;;;;4.63;4.13;;;;;;;;;;5041252;28;20045;-81
2023/08/02 11:09:14;;;;;;;6.03;4.30;;;;;;;;;;5038703;28;20367;-82
2023/08/02 11:11:40;;;;;;;5.57;3.55;;;;;;;;;;5052877;28;20045;-81
2023/08/02 11:14:06;;;;;;;4.13;3.53;;;;;;;;;;5062428;28;20088;-80
2023/08/02 11:16:39;;;;;;;5.03;3.97;;;;;;;;;;5062721;28;20049;-81
2023/08/02 11:19:11;;;;;;;3.85;3.22;;;;;;;;;;5061814;28;20049;-80
2023/08/02 11:21:38;;;;;;;5.47;3.65;;;;;;;;;;5042874;28;20079;-80
2023/08/02 11:24:04;;;;;;;5.07;3.40;;;;;;;;;;5042679;28;20049;-80
2023/08/02 11:26:30;;;;;;;4.78;3.78;;;;;;;;;;5058143;28;20052;-79
2023/08/02 11:28:57;;;;;;;4.10;3.08;;;;;;;;;;5051780;28;20041;-79
2023/08/02 11:31:24;;;;;;;4.28;3.15;;;;;;;;;;5052589;28;20095;-79
2023/08/02 11:33:50;;;;;;;4.07;2.85;;;;;;;;;;5040639;28;20049;-79
2023/08/02 11:36:16;;;;;;;3.83;3.25;;;;;;;;;;5059796;28;20077;-79
2023/08/02 11:38:43;;;;;;;5.95;3.30;;;;;;;;;;5059436;28;20060;-81
2023/08/02 11:41:17;;;;;;;3.38;3.08;;;;;;;;;;5059539;28;20041;-80
2023/08/02 11:43:44;;;;;;;3.80;3.13;;;;;;;;;;5050006;28;20038;-81
2023/08/02 11:46:27;;;;;;;3.65;2.45;;;;;;;;;;5039234;28;20045;-81
2023/08/02 11:48:55;;;;;;;3.10;2.65;;;;;;;;;;5042995;28;20048;-80
2023/08/02 11:51:22;;;;;;;3.42;2.72;;;;;;;;;;5059179;28;20813;-80
2023/08/02 11:53:48;;;;;;;3.30;2.85;;;;;;;;;;5063348;28;20049;-81
2023/08/02 11:56:14;;;;;;;3.28;2.67;;;;;;;;;;5066028;28;20041;-81
2023/08/02 11:58:42;;;;;;;3.08;2.75;;;;;;;;;;5053955;28;20049;-82
2023/08/02 12:01:08;;;;;;;2.95;2.65;;;;;;;;;;5041262;28;20558;-81
2023/08/02 12:03:34;;;;;;;3.03;2.40;;;;;;;;;;5059220;28;20442;-81
2023/08/02 12:06:02;;;;;;;3.00;2.70;;;;;;;;;;5060018;28;20083;-81
2023/08/02 12:08:28;;;;;;;2.83;2.40;;;;;;;;;;5058714;28;20491;-80
2023/08/02 12:10:54;;;;;;;4.82;2.53;;;;;;;;;;5059494;28;20381;-80
2023/08/02 12:13:20;;;;;;;3.05;2.70;;;;;;;;;;5060251;28;20485;-79
2023/08/02 12:15:58;;;;;;;3.10;2.80;;;;;;;;;;5060276;28;20198;-79
2023/08/02 12:18:24;;;;;;;3.10;2.80;;;;;;;;;;5038372;28;20045;-79
2023/08/02 12:20:50;;;;;;;3.67;2.88;;;;;;;;;;5039290;28;20050;-78
2023/08/02 12:23:36;;;;;;;4.07;3.33;;;;;;;;;;5054660;28;20060;-79
2023/08/02 12:26:02;;;;;;;4.32;3.10;;;;;;;;;;5059356;28;20356;-78
2023/08/02 12:28:47;;;;;;;3.38;3.08;;;;;;;;;;5058816;28;20400;-80
2023/08/02 12:31:14;;;;;;;3.72;3.22;;;;;;;;;;5044179;28;20133;-79
2023/08/02 12:33:40;;;;;;;4.68;3.50;;;;;;;;;;5059457;28;20057;-79
2023/08/02 12:36:07;;;;;;;4.53;3.70;;;;;;;;;;5059111;28;20152;-79
2023/08/02 12:38:34;;;;;;;3.92;3.53;;;;;;;;;;5053207;28;20104;-79
2023/08/02 12:41:03;;;;;;;4.35;3.58;;;;;;;;;;5053827;28;20052;-79
2023/08/02 12:43:29;;;;;;;3.90;3.50;;;;;;;;;;5059646;28;20544;-82
2023/08/02 12:45:55;;;;;;;4.57;4.07;;;;;;;;;;5058685;28;20440;-80
2023/08/02 12:48:21;;;;;;;4.97;4.20;;;;;;;;;;5056382;28;20041;-79
2023/08/02 12:50:47;;;;;;;5.13;3.95;;;;;;;;;;5051733;28;20712;-80
2023/08/02 12:53:14;;;;;;;4.60;4.10;;;;;;;;;;5058130;28;20037;-80
2023/08/02 12:55:40;;;;;;;4.35;3.55;;;;;;;;;;5057551;28;20048;-82
2023/08/02 12:58:06;;;;;;;4.32;3.63;;;;;;;;;;5057544;28;20098;-83
2023/08/02 13:00:32;;;;;;;6.30;4.00;;;;;;;;;;5057203;28;20164;-80
2023/08/02 13:02:58;;;;;;;5.28;3.70;;;;;;;;;;5057894;28;20049;-79
2023/08/02 13:05:24;;;;;;;4.55;3.70;;;;;;;;;;5058474;28;20052;-79
2023/08/02 13:07:50;;;;;;;4.90;3.53;;;;;;;;;;5045161;28;20050;-78
2023/08/02 13:10:16;;;;;;;3.90;3.50;;;;;;;;;;5054097;28;20083;-78
2023/08/02 13:12:42;;;;;;;4.45;3.60;;;;;;;;;;5056989;28;20407;-80
2023/08/02 13:15:09;;;;;;;3.92;3.17;;;;;;;;;;5059033;28;20063;-79
2023/08/02 13:17:35;;;;;;;5.28;3.10;;;;;;;;;;5058953;28;20056;-79
2023/08/02 13:20:05;;;;;;;3.83;3.17;;;;;;;;;;5057087;28;20052;-79
2023/08/02 13:22:31;;;;;;;5.70;3.72;;;;;;;;;;5058374;28;20049;-79
2023/08/02 13:24:57;;;;;;;3.08;2.78;;;;;;;;;;5058282;28;20048;-79
2023/08/02 13:27:23;;;;;;;3.50;2.88;;;;;;;;;;5051903;28;20144;-78
2023/08/02 13:29:49;;;;;;;4.10;3.00;;;;;;;;;;5037436;28;20048;-78
2023/08/02 13:32:16;;;;;;;4.43;3.25;;;;;;;;;;5038001;28;20542;-78
2023/08/02 13:34:42;;;;;;;4.22;3.15;;;;;;;;;;5071850;28;20041;-78
2023/08/02 13:37:08;;;;;;;3.13;2.67;;;;;;;;;;5078534;28;20072;-78
2023/08/02 13:39:34;;;;;;;4.95;2.75;;;;;;;;;;5071120;28;20467;-78
2023/08/02 13:42:00;;;;;;;5.88;3.25;;;;;;;;;;5057690;28;20175;-78
2023/08/02 13:44:26;;;;;;;5.78;2.95;;;;;;;;;;5058785;28;20045;-78
2023/08/02 13:46:52;;;;;;;4.75;2.50;;;;;;;;;;5058620;28;20052;-79
2023/08/02 13:49:18;;;;;;;5.35;2.55;;;;;;;;;;5042138;28;20037;-79
2023/08/02 13:51:44;;;;;;;5.55;2.45;;;;;;;;;;5058680;28;20049;-79
2023/08/02 13:54:10;;;;;;;8.32;2.70;;;;;;;;;;5058106;28;20055;-78
2023/08/02 13:56:36;;;;;;;7.75;3.30;;;;;;;;;;5058971;28;20045;-78
2023/08/02 13:59:02;;;;;;;7.40;2.50;;;;;;;;;;5059311;28;20076;-78
2023/08/02 14:01:28;;;;;;;8.02;3.47;;;;;;;;;;5058279;28;20440;-78
2023/08/02 14:03:54;;;;;;;6.25;2.88;;;;;;;;;;5058315;28;20037;-78
2023/08/02 14:06:20;;;;;;;7.72;2.67;;;;;;;;;;5057837;28;20124;-78
2023/08/02 14:08:46;;;;;;;5.78;2.58;;;;;;;;;;5058093;28;20048;-78
2023/08/02 14:11:13;;;;;;;5.07;2.50;;;;;;;;;;5051896;28;20056;-78
2023/08/02 14:13:39;;;;;;;4.78;2.28;;;;;;;;;;5058065;28;20048;-79
2023/08/02 14:16:05;;;;;;;4.30;2.13;;;;;;;;;;5059001;28;20120;-79
2023/08/02 14:18:31;;;;;;;6.05;2.17;;;;;;;;;;5047017;28;20048;-78
2023/08/02 14:20:57;;;;;;;4.95;2.40;;;;;;;;;;5059811;28;20101;-79
2023/08/02 14:23:23;;;;;;;3.97;2.47;;;;;;;;;;5058199;28;20093;-79
2023/08/02 14:25:50;;;;;;;5.40;2.60;;;;;;;;;;5058162;28;20055;-79
2023/08/02 14:28:16;;;;;;;3.47;1.90;;;;;;;;;;5059041;28;20052;-79
2023/08/02 14:30:42;;;;;;;6.68;2.10;;;;;;;;;;5058978;28;20051;-79
2023/08/02 14:33:08;;;;;;;8.88;2.58;;;;;;;;;;5043249;28;20049;-81
2023/08/02 14:35:34;;;;;;;7.90;2.45;;;;;;;;;;5046325;28;20402;-79
2023/08/02 14:38:00;;;;;;;11.73;2.75;;;;;;;;;;5023720;28;20057;-79